createdAt,value
2017-10-21T00:00:45.920Z,12.60
2017-10-21T00:03:11.892Z,14.20
2017-10-21T00:05:37.869Z,17.33
2017-10-21T00:08:04.561Z,8.80
2017-10-21T00:10:30.537Z,7.53
2017-10-21T00:12:56.505Z,8.47
2017-10-21T00:15:22.480Z,8.30
2017-10-21T00:17:48.454Z,6.80
2017-10-21T00:20:14.424Z,5.97
2017-10-21T00:22:40.379Z,17.00
2017-10-21T00:25:06.369Z,26.47
2017-10-21T00:27:32.318Z,33.03
2017-10-21T00:29:58.258Z,11.70
2017-10-21T00:32:24.229Z,13.27
2017-10-21T00:34:50.242Z,9.43
2017-10-21T00:37:16.182Z,10.50
2017-10-21T00:39:42.142Z,7.90
2017-10-21T00:42:08.081Z,9.33
2017-10-21T00:44:34.084Z,7.67
2017-10-21T00:47:00.025Z,9.23
2017-10-21T00:49:25.964Z,10.40
2017-10-21T00:51:51.948Z,8.57
2017-10-21T00:54:18.624Z,8.50
2017-10-21T00:56:44.593Z,10.13
2017-10-21T00:59:10.524Z,10.37
2017-10-21T01:01:36.518Z,10.97
2017-10-21T01:04:02.518Z,10.07
2017-10-21T01:06:28.503Z,9.53
2017-10-21T01:08:54.455Z,7.40
2017-10-21T01:11:20.438Z,5.90
2017-10-21T01:13:47.166Z,4.70
2017-10-21T01:16:13.154Z,6.20
2017-10-21T01:18:39.843Z,6.77
2017-10-21T01:21:05.826Z,4.53
2017-10-21T01:23:31.765Z,3.97
2017-10-21T01:25:57.766Z,4.10
2017-10-21T01:28:23.712Z,4.93
2017-10-21T01:30:50.433Z,3.23
2017-10-21T01:33:16.398Z,3.70
2017-10-21T01:35:42.333Z,4.00
2017-10-21T01:38:08.302Z,3.43
2017-10-21T01:40:34.251Z,3.70
2017-10-21T01:43:00.218Z,4.60
2017-10-21T01:45:26.154Z,3.70
2017-10-21T01:47:52.150Z,4.13
2017-10-21T01:50:18.094Z,4.87
2017-10-21T01:52:44.043Z,3.90
2017-10-21T01:55:10.019Z,3.87
2017-10-21T01:57:36.767Z,4.30
2017-10-21T02:00:02.745Z,4.43
2017-10-21T02:02:28.682Z,5.20
2017-10-21T02:04:54.641Z,5.00
2017-10-21T02:07:20.572Z,4.20
2017-10-21T02:09:46.576Z,4.30
2017-10-21T02:12:12.512Z,6.57
2017-10-21T02:14:38.476Z,3.60
2017-10-21T02:17:04.461Z,3.33
2017-10-21T02:19:30.401Z,5.17
2017-10-21T02:21:56.362Z,3.63
2017-10-21T02:24:22.294Z,6.40
2017-10-21T02:26:48.269Z,5.17
2017-10-21T02:29:14.198Z,3.37
2017-10-21T02:31:40.210Z,3.13
2017-10-21T02:34:06.216Z,4.73
2017-10-21T02:36:32.172Z,2.93
2017-10-21T02:38:58.107Z,3.40
2017-10-21T02:41:24.090Z,2.83
2017-10-21T02:43:50.765Z,3.60
2017-10-21T02:46:16.710Z,4.40
2017-10-21T02:48:42.689Z,4.37
2017-10-21T02:51:08.638Z,2.80
2017-10-21T02:53:35.369Z,5.83
2017-10-21T02:56:02.046Z,6.10
2017-10-21T02:58:28.006Z,3.43
2017-10-21T03:00:54.745Z,3.30
2017-10-21T03:03:20.721Z,4.53
2017-10-21T03:05:46.666Z,3.43
2017-10-21T03:08:12.650Z,3.30
2017-10-21T03:10:39.377Z,5.37
2017-10-21T03:13:06.061Z,5.33
2017-10-21T03:15:32.019Z,6.30
2017-10-21T03:17:58.002Z,4.40
2017-10-21T03:20:23.936Z,4.20
2017-10-21T03:22:50.660Z,3.33
2017-10-21T03:25:17.338Z,5.37
2017-10-21T03:27:43.277Z,3.90
2017-10-21T03:30:09.998Z,4.13
2017-10-21T03:32:36.745Z,4.10
2017-10-21T03:35:03.474Z,3.80
2017-10-21T03:37:30.150Z,5.27
2017-10-21T03:39:56.123Z,3.47
2017-10-21T03:42:22.062Z,3.13
2017-10-21T03:44:48.000Z,2.30
2017-10-21T03:47:13.982Z,3.70
2017-10-21T03:49:39.963Z,8.03
2017-10-21T03:52:05.945Z,4.60
2017-10-21T03:54:32.662Z,3.53
2017-10-21T03:56:59.362Z,3.37
2017-10-21T03:59:25.354Z,3.50
2017-10-21T04:01:51.318Z,4.30
2017-10-21T04:04:17.257Z,9.30
2017-10-21T04:06:43.246Z,3.83
2017-10-21T04:09:09.213Z,4.03
2017-10-21T04:11:35.159Z,2.50
2017-10-21T04:14:01.133Z,9.97
2017-10-21T04:16:27.069Z,4.83
2017-10-21T04:18:53.007Z,4.23
2017-10-21T04:21:18.974Z,5.07
2017-10-21T04:23:45.665Z,4.60
2017-10-21T04:26:11.677Z,3.10
2017-10-21T04:28:44.521Z,4.40
2017-10-21T04:31:10.493Z,3.70
2017-10-21T04:33:36.494Z,3.60
2017-10-21T04:36:03.188Z,5.03
2017-10-21T04:38:29.197Z,3.07
2017-10-21T04:40:55.137Z,3.43
2017-10-21T04:43:21.821Z,6.70
2017-10-21T04:45:47.795Z,5.70
2017-10-21T04:48:13.769Z,4.77
2017-10-21T04:50:40.502Z,7.80
2017-10-21T04:53:07.209Z,3.47
2017-10-21T04:55:33.961Z,6.40
2017-10-21T04:57:59.905Z,4.80
2017-10-21T05:00:25.874Z,3.70
2017-10-21T05:02:51.816Z,4.33
2017-10-21T05:05:17.792Z,3.00
2017-10-21T05:07:43.733Z,5.53
2017-10-21T05:10:09.724Z,3.07
2017-10-21T05:12:35.673Z,5.17
2017-10-21T05:15:01.613Z,9.33
2017-10-21T05:17:28.342Z,3.10
2017-10-21T05:19:54.357Z,5.17
2017-10-21T05:22:21.077Z,2.90
2017-10-21T05:24:47.778Z,3.50
2017-10-21T05:27:14.521Z,5.67
2017-10-21T05:29:41.205Z,5.60
2017-10-21T05:32:07.299Z,3.73
2017-10-21T05:34:33.290Z,4.00
2017-10-21T05:37:00.061Z,3.40
2017-10-21T05:39:26.106Z,4.87
2017-10-21T05:41:52.802Z,6.00
2017-10-21T05:44:18.741Z,7.67
2017-10-21T05:46:45.465Z,6.17
2017-10-21T05:49:12.181Z,6.30
2017-10-21T05:51:38.908Z,10.37
2017-10-21T05:54:05.613Z,4.37
2017-10-21T05:56:31.593Z,4.47
2017-10-21T05:58:57.529Z,3.50
2017-10-21T06:01:23.518Z,5.07
2017-10-21T06:03:49.464Z,7.93
2017-10-21T06:06:16.169Z,5.50
2017-10-21T06:08:42.151Z,7.10
2017-10-21T06:11:08.117Z,4.20
2017-10-21T06:13:34.937Z,4.37
2017-10-21T06:16:01.730Z,4.33
2017-10-21T06:18:27.720Z,4.30
2017-10-21T06:20:53.710Z,4.00
2017-10-21T06:23:19.650Z,4.67
2017-10-21T06:25:45.584Z,5.03
2017-10-21T06:28:11.622Z,4.30
2017-10-21T06:30:37.618Z,5.17
2017-10-21T06:33:04.370Z,4.70
2017-10-21T06:35:30.300Z,4.90
2017-10-21T06:37:56.244Z,5.40
2017-10-21T06:40:22.234Z,5.90
2017-10-21T06:42:48.183Z,5.73
2017-10-21T06:45:14.908Z,8.00
2017-10-21T06:47:41.593Z,5.90
2017-10-21T06:50:07.549Z,3.50
2017-10-21T06:52:33.544Z,4.97
2017-10-21T06:55:00.289Z,10.23
2017-10-21T06:57:26.229Z,6.90
2017-10-21T06:59:52.172Z,6.73
2017-10-21T07:02:18.150Z,5.80
2017-10-21T07:04:44.113Z,6.20
2017-10-21T07:07:10.122Z,6.90
2017-10-21T07:09:36.109Z,6.03
2017-10-21T07:12:02.097Z,7.23
2017-10-21T07:14:28.078Z,4.63
2017-10-21T07:16:54.022Z,5.73
2017-10-21T07:19:20.001Z,3.60
2017-10-21T07:21:46.006Z,7.60
2017-10-21T07:24:11.945Z,8.40
2017-10-21T07:26:37.906Z,6.70
2017-10-21T07:29:03.898Z,7.00
2017-10-21T07:31:29.880Z,5.23
2017-10-21T07:33:55.848Z,5.13
2017-10-21T07:36:21.781Z,4.13
2017-10-21T07:38:47.757Z,9.30
2017-10-21T07:41:13.697Z,4.13
2017-10-21T07:43:39.679Z,8.40
2017-10-21T07:46:05.640Z,8.43
2017-10-21T07:48:32.378Z,4.90
2017-10-21T07:50:58.317Z,5.87
2017-10-21T07:53:24.257Z,8.60
2017-10-21T07:55:50.234Z,8.23
2017-10-21T07:58:16.169Z,3.00
2017-10-21T08:00:42.153Z,5.63
2017-10-21T08:03:08.099Z,5.57
2017-10-21T08:05:34.054Z,5.90
2017-10-21T08:08:01.058Z,7.47
2017-10-21T08:10:27.010Z,7.43
2017-10-21T08:12:52.991Z,4.83
2017-10-21T08:15:19.000Z,3.77
2017-10-21T08:17:44.939Z,4.73
2017-10-21T08:20:10.926Z,6.17
2017-10-21T08:22:36.877Z,5.27
2017-10-21T08:25:02.834Z,5.20
2017-10-21T08:27:28.812Z,5.43
2017-10-21T08:29:55.493Z,4.03
2017-10-21T08:32:21.472Z,4.20
2017-10-21T08:34:47.460Z,7.63
2017-10-21T08:37:14.149Z,5.70
2017-10-21T08:39:40.133Z,12.73
2017-10-21T08:42:06.113Z,6.60
2017-10-21T08:44:32.839Z,11.50
2017-10-21T08:46:58.837Z,7.67
2017-10-21T08:49:25.533Z,10.83
2017-10-21T08:51:51.473Z,6.23
2017-10-21T08:54:18.194Z,6.70
2017-10-21T08:56:44.909Z,5.80
2017-10-21T08:59:11.597Z,4.70
2017-10-21T09:01:37.594Z,8.23
2017-10-21T09:04:03.547Z,7.20
2017-10-21T09:06:30.278Z,7.83
2017-10-21T09:08:56.966Z,7.40
2017-10-21T09:11:23.014Z,5.73
2017-10-21T09:13:49.701Z,7.10
2017-10-21T09:16:15.683Z,10.13
2017-10-21T09:18:41.673Z,5.57
2017-10-21T09:21:07.613Z,6.53
2017-10-21T09:23:33.606Z,6.63
2017-10-21T09:25:59.558Z,4.83
2017-10-21T09:28:25.534Z,6.23
2017-10-21T09:30:51.497Z,6.50
2017-10-21T09:33:18.220Z,5.60
2017-10-21T09:35:44.909Z,7.93
2017-10-21T09:38:10.971Z,10.23
2017-10-21T09:40:37.025Z,11.30
2017-10-21T09:43:02.980Z,5.00
2017-10-21T09:45:29.753Z,9.20
2017-10-21T09:47:55.692Z,11.53
2017-10-21T09:50:21.770Z,7.20
2017-10-21T09:52:47.713Z,9.13
2017-10-21T09:55:13.656Z,9.77
2017-10-21T09:57:39.653Z,4.40
2017-10-21T10:00:05.635Z,6.00
2017-10-21T10:02:31.628Z,9.53
2017-10-21T10:04:57.573Z,4.73
2017-10-21T10:07:24.253Z,5.33
2017-10-21T10:09:50.253Z,7.23
2017-10-21T10:12:16.190Z,10.30
2017-10-21T10:14:42.187Z,7.13
2017-10-21T10:17:08.137Z,5.57
2017-10-21T10:19:34.870Z,7.90
2017-10-21T10:22:00.880Z,5.63
2017-10-21T10:24:27.257Z,10.00
2017-10-21T10:26:53.196Z,3.87
2017-10-21T10:29:19.927Z,5.57
2017-10-21T10:31:45.885Z,7.77
2017-10-21T10:34:11.843Z,11.03
2017-10-21T10:36:37.830Z,7.67
2017-10-21T10:39:03.817Z,9.60
2017-10-21T10:41:29.761Z,6.73
2017-10-21T10:43:56.466Z,10.73
2017-10-21T10:46:22.449Z,9.67
2017-10-21T10:48:48.426Z,9.00
2017-10-21T10:51:14.404Z,6.80
2017-10-21T10:53:41.144Z,10.50
2017-10-21T10:56:07.100Z,6.67
2017-10-21T10:58:33.101Z,6.20
2017-10-21T11:00:59.077Z,7.50
2017-10-21T11:03:25.049Z,7.90
2017-10-21T11:05:50.988Z,11.80
2017-10-21T11:08:16.985Z,9.23
2017-10-21T11:10:43.674Z,10.60
2017-10-21T11:13:09.654Z,8.10
2017-10-21T11:15:35.622Z,8.43
2017-10-21T11:18:02.311Z,6.30
2017-10-21T11:20:28.296Z,8.47
2017-10-21T11:22:54.239Z,8.93
2017-10-21T11:25:20.235Z,9.50
2017-10-21T11:27:46.177Z,8.47
2017-10-21T11:30:12.893Z,10.40
2017-10-21T11:32:40.323Z,6.53
2017-10-21T11:35:06.277Z,7.77
2017-10-21T11:37:32.265Z,8.90
2017-10-21T11:39:58.979Z,11.93
2017-10-21T11:42:24.920Z,12.27
2017-10-21T11:44:50.901Z,8.63
2017-10-21T11:47:17.600Z,10.80
2017-10-21T11:49:43.596Z,10.13
2017-10-21T11:52:09.544Z,12.67
2017-10-21T11:54:36.241Z,15.53
2017-10-21T11:57:02.250Z,6.13
2017-10-21T11:59:28.197Z,11.63
2017-10-21T12:01:54.885Z,6.80
2017-10-21T12:04:20.866Z,7.30
2017-10-21T12:06:46.822Z,7.37
2017-10-21T12:09:12.809Z,7.30
2017-10-21T12:11:38.787Z,7.20
2017-10-21T12:14:04.769Z,8.23
2017-10-21T12:16:30.746Z,11.43
2017-10-21T12:18:56.686Z,11.53
2017-10-21T12:21:22.673Z,9.17
2017-10-21T12:23:48.641Z,9.07
2017-10-21T12:26:14.628Z,11.50
2017-10-21T12:28:40.625Z,7.23
2017-10-21T12:31:06.577Z,7.67
2017-10-21T12:33:39.459Z,8.07
2017-10-21T12:36:06.889Z,10.93
2017-10-21T12:38:32.908Z,10.37
2017-10-21T12:40:58.894Z,7.90
2017-10-21T12:43:24.837Z,7.30
2017-10-21T12:45:50.814Z,9.10
2017-10-21T12:48:16.756Z,8.70
2017-10-21T12:50:42.738Z,6.70
2017-10-21T12:53:08.722Z,8.37
2017-10-21T12:55:34.746Z,8.53
2017-10-21T12:58:00.693Z,8.57
2017-10-21T13:00:27.421Z,10.20
2017-10-21T13:02:54.129Z,11.83
2017-10-21T13:05:20.121Z,9.37
2017-10-21T13:07:46.070Z,8.23
2017-10-21T13:10:12.758Z,10.47
2017-10-21T13:12:38.751Z,12.10
2017-10-21T13:15:04.741Z,17.40
2017-10-21T13:17:30.725Z,8.43
2017-10-21T13:19:57.435Z,6.50
2017-10-21T13:22:23.401Z,14.80
2017-10-21T13:24:49.337Z,10.07
2017-10-21T13:27:15.319Z,9.97
2017-10-21T13:29:41.321Z,8.17
2017-10-21T13:32:07.322Z,8.07
2017-10-21T13:34:33.275Z,8.27
2017-10-21T13:36:59.267Z,14.47
2017-10-21T13:39:25.230Z,14.07
2017-10-21T13:41:51.228Z,15.27
2017-10-21T13:44:17.957Z,11.67
2017-10-21T13:46:44.685Z,8.27
2017-10-21T13:49:10.737Z,7.40
2017-10-21T13:51:36.850Z,9.90
2017-10-21T13:54:02.874Z,8.70
2017-10-21T13:56:28.816Z,5.53
2017-10-21T13:58:55.508Z,9.07
2017-10-21T14:01:21.490Z,8.40
2017-10-21T14:03:47.433Z,8.60
2017-10-21T14:06:13.408Z,10.73
2017-10-21T14:08:39.366Z,5.97
2017-10-21T14:11:05.424Z,7.77
2017-10-21T14:13:31.419Z,9.70
2017-10-21T14:15:58.141Z,8.83
2017-10-21T14:18:24.937Z,10.50
2017-10-21T14:20:50.905Z,5.30
2017-10-21T14:23:16.858Z,8.70
2017-10-21T14:25:42.854Z,6.97
2017-10-21T14:28:08.874Z,11.37
2017-10-21T14:30:34.934Z,6.07
2017-10-21T14:33:00.890Z,11.20
2017-10-21T14:35:26.861Z,10.03
2017-10-21T14:37:52.924Z,9.43
2017-10-21T14:40:19.697Z,10.70
2017-10-21T14:42:45.717Z,8.80
2017-10-21T14:45:11.714Z,10.13
2017-10-21T14:47:37.705Z,12.40
2017-10-21T14:50:03.775Z,10.43
2017-10-21T14:52:29.867Z,11.53
2017-10-21T14:54:55.842Z,10.13
2017-10-21T14:57:21.932Z,14.50
2017-10-21T14:59:48.665Z,15.37
2017-10-21T15:02:14.781Z,10.80
2017-10-21T15:04:40.733Z,13.97
2017-10-21T15:07:06.817Z,17.03
2017-10-21T15:09:32.811Z,16.30
2017-10-21T15:11:58.756Z,19.37
2017-10-21T15:14:24.730Z,14.63
2017-10-21T15:16:50.784Z,14.83
2017-10-21T15:19:16.741Z,15.50
2017-10-21T15:21:42.721Z,13.90
2017-10-21T15:24:08.701Z,17.53
2017-10-21T15:26:34.663Z,14.30
2017-10-21T15:29:01.493Z,12.10
2017-10-21T15:31:28.185Z,12.60
2017-10-21T15:33:54.125Z,15.60
2017-10-21T15:36:20.849Z,15.40
2017-10-21T15:38:47.595Z,18.57
2017-10-21T15:41:13.533Z,14.07
2017-10-21T15:43:39.560Z,16.23
2017-10-21T15:46:05.533Z,16.87
2017-10-21T15:48:32.563Z,14.77
2017-10-21T15:50:58.552Z,14.37
2017-10-21T15:53:24.510Z,18.30
2017-10-21T15:55:50.508Z,17.20
2017-10-21T15:58:16.484Z,13.70
2017-10-21T16:00:42.541Z,16.50
2017-10-21T16:03:08.494Z,15.40
2017-10-21T16:05:34.514Z,11.17
2017-10-21T16:08:00.556Z,15.27
2017-10-21T16:10:26.514Z,15.90
2017-10-21T16:12:53.225Z,17.73
2017-10-21T16:15:19.950Z,14.53
2017-10-21T16:17:46.629Z,15.90
2017-10-21T16:20:12.582Z,19.00
2017-10-21T16:22:39.590Z,20.73
2017-10-21T16:25:05.625Z,18.60
2017-10-21T16:27:32.313Z,13.53
2017-10-21T16:29:58.302Z,19.20
2017-10-21T16:32:24.290Z,17.73
2017-10-21T16:34:50.982Z,17.70
2017-10-21T16:37:16.995Z,21.80
2017-10-21T16:39:43.700Z,28.00
2017-10-21T16:42:09.674Z,20.60
2017-10-21T16:44:35.693Z,16.43
2017-10-21T16:47:01.633Z,23.10
2017-10-21T16:49:27.612Z,17.10
2017-10-21T16:51:53.593Z,20.20
2017-10-21T16:54:19.554Z,26.30
2017-10-21T16:56:45.548Z,23.47
2017-10-21T16:59:11.593Z,17.77
2017-10-21T17:01:38.353Z,27.40
2017-10-21T17:04:04.336Z,24.10
2017-10-21T17:06:31.054Z,22.77
2017-10-21T17:08:57.742Z,20.23
2017-10-21T17:11:23.738Z,19.63
2017-10-21T17:13:49.690Z,24.53
2017-10-21T17:16:15.636Z,18.70
2017-10-21T17:18:41.613Z,16.20
2017-10-21T17:21:08.323Z,19.77
2017-10-21T17:23:34.360Z,28.33
2017-10-21T17:26:01.082Z,22.77
2017-10-21T17:28:27.768Z,19.80
2017-10-21T17:30:53.761Z,24.27
2017-10-21T17:33:19.746Z,23.80
2017-10-21T17:35:45.709Z,24.73
2017-10-21T17:38:11.741Z,28.30
2017-10-21T17:40:38.430Z,26.30
2017-10-21T17:43:04.394Z,24.43
2017-10-21T17:45:30.385Z,21.43
2017-10-21T17:47:57.076Z,27.37
2017-10-21T17:50:23.017Z,21.20
2017-10-21T17:52:49.742Z,25.90
2017-10-21T17:55:16.478Z,27.20
2017-10-21T17:57:43.168Z,23.70
2017-10-21T18:00:09.155Z,21.50
2017-10-21T18:02:35.136Z,25.63
2017-10-21T18:05:01.125Z,25.30
2017-10-21T18:07:27.809Z,28.90
2017-10-21T18:09:53.753Z,28.23
2017-10-21T18:12:20.481Z,28.50
2017-10-21T18:14:47.169Z,28.37
2017-10-21T18:17:13.148Z,26.90
2017-10-21T18:19:39.094Z,26.93
2017-10-21T18:22:05.081Z,33.00
2017-10-21T18:24:31.049Z,34.40
2017-10-21T18:26:57.063Z,26.80
2017-10-21T18:29:23.037Z,31.00
2017-10-21T18:31:48.973Z,30.33
2017-10-21T18:34:15.025Z,29.83
2017-10-21T18:36:41.002Z,32.80
2017-10-21T18:39:06.969Z,32.13
2017-10-21T18:41:32.959Z,28.83
2017-10-21T18:43:58.925Z,35.50
2017-10-21T18:46:24.897Z,32.63
2017-10-21T18:48:50.841Z,32.47
2017-10-21T18:51:16.837Z,29.70
2017-10-21T18:59:36.435Z,33.53
2017-10-21T19:02:03.146Z,31.83
2017-10-21T19:04:29.579Z,25.63
2017-10-21T19:06:55.597Z,24.30
2017-10-21T19:09:22.318Z,27.50
2017-10-21T19:11:49.033Z,26.60
2017-10-21T19:14:14.976Z,27.67
2017-10-21T19:16:43.691Z,23.00
2017-10-21T19:19:09.644Z,29.40
2017-10-21T19:21:36.130Z,23.13
2017-10-21T19:24:02.378Z,24.30
2017-10-21T19:26:28.330Z,27.80
2017-10-21T19:28:54.310Z,25.10
2017-10-21T19:31:20.313Z,29.73
2017-10-21T19:33:46.373Z,29.90
2017-10-21T19:36:12.469Z,26.07
2017-10-21T19:38:38.458Z,23.50
2017-10-21T19:41:04.419Z,27.00
2017-10-21T19:43:31.149Z,27.47
2017-10-21T19:45:57.197Z,25.00
2017-10-21T19:48:23.894Z,28.73
2017-10-21T19:50:49.921Z,28.70
2017-10-21T19:53:15.985Z,30.83
2017-10-21T19:55:42.002Z,33.47
2017-10-21T19:58:07.986Z,26.73
2017-10-21T20:00:33.921Z,27.60
2017-10-21T20:03:00.609Z,33.53
2017-10-21T20:05:26.605Z,31.33
2017-10-21T20:07:52.573Z,30.03
2017-10-21T20:10:25.601Z,28.77
2017-10-21T20:12:51.537Z,30.53
2017-10-21T20:15:17.802Z,27.53
2017-10-21T20:17:44.227Z,29.60
2017-10-21T20:20:11.029Z,30.80
2017-10-21T20:22:36.978Z,31.67
2017-10-21T20:25:03.703Z,32.00
2017-10-21T20:27:29.657Z,27.23
2017-10-21T20:29:56.344Z,30.30
2017-10-21T20:32:22.328Z,31.73
2017-10-21T20:34:49.769Z,27.40
2017-10-21T20:37:15.944Z,26.57
2017-10-21T20:39:42.681Z,28.63
2017-10-21T20:42:08.637Z,30.17
2017-10-21T20:44:34.589Z,26.77
2017-10-21T20:47:01.319Z,27.30
2017-10-21T20:49:28.067Z,27.43
2017-10-21T20:51:54.038Z,27.80
2017-10-21T20:54:20.735Z,32.80
2017-10-21T20:56:46.754Z,26.97
2017-10-21T20:59:12.706Z,26.27
2017-10-21T21:01:38.653Z,25.67
2017-10-21T21:04:04.757Z,23.47
2017-10-21T21:06:30.716Z,28.70
2017-10-21T21:08:56.681Z,29.20
2017-10-21T21:11:22.737Z,23.63
2017-10-21T21:13:49.478Z,25.50
2017-10-21T21:16:15.510Z,21.70
2017-10-21T21:18:42.250Z,23.93
2017-10-21T21:21:08.229Z,22.43
2017-10-21T21:23:34.170Z,27.57
2017-10-21T21:26:00.143Z,26.20
2017-10-21T21:28:26.094Z,23.73
2017-10-21T21:30:52.109Z,23.63
2017-10-21T21:33:18.119Z,20.10
2017-10-21T21:35:44.204Z,20.00
2017-10-21T21:38:10.145Z,21.23
2017-10-21T21:40:36.230Z,17.57
2017-10-21T21:43:02.192Z,20.00
2017-10-21T21:45:28.157Z,19.53
2017-10-21T21:47:54.157Z,21.87
2017-10-21T21:50:20.169Z,20.93
2017-10-21T21:52:46.349Z,17.63
2017-10-21T21:55:13.105Z,17.53
2017-10-21T21:57:39.118Z,18.10
2017-10-21T22:00:05.113Z,16.33
2017-10-21T22:02:31.804Z,15.87
2017-10-21T22:04:57.748Z,17.33
2017-10-21T22:07:23.767Z,14.73
2017-10-21T22:09:49.792Z,15.07
2017-10-21T22:12:15.974Z,15.47
2017-10-21T22:14:41.973Z,17.13
2017-10-21T22:17:07.921Z,14.00
2017-10-21T22:19:33.897Z,14.17
2017-10-21T22:21:59.888Z,15.07
2017-10-21T22:24:25.829Z,14.43
2017-10-21T22:26:51.889Z,15.27
2017-10-21T22:29:18.086Z,13.43
2017-10-21T22:31:44.159Z,14.93
2017-10-21T22:34:10.158Z,15.30
2017-10-21T22:36:36.846Z,13.60
2017-10-21T22:39:02.803Z,13.53
2017-10-21T22:41:28.773Z,17.83
2017-10-21T22:43:55.457Z,14.40
2017-10-21T22:46:21.470Z,13.30
2017-10-21T22:48:48.280Z,16.23
2017-10-21T22:51:14.361Z,13.30
2017-10-21T22:53:40.317Z,15.93
2017-10-21T22:56:06.292Z,16.07
2017-10-21T22:58:32.297Z,14.37
2017-10-21T23:00:58.269Z,14.00
2017-10-21T23:03:24.318Z,13.30
2017-10-21T23:05:50.350Z,15.30
2017-10-21T23:08:16.437Z,13.77
2017-10-21T23:10:42.381Z,16.20
2017-10-21T23:13:08.321Z,17.70
2017-10-21T23:15:34.298Z,32.13
2017-10-21T23:18:00.240Z,28.53
2017-10-21T23:20:26.227Z,18.53
2017-10-21T23:22:52.241Z,16.07
2017-10-21T23:25:18.337Z,15.97
2017-10-21T23:27:44.430Z,16.83
2017-10-21T23:30:10.397Z,18.90
2017-10-21T23:32:36.342Z,18.13
2017-10-21T23:35:02.318Z,16.67
2017-10-21T23:37:28.999Z,18.53
2017-10-21T23:39:54.977Z,20.67
2017-10-21T23:42:20.970Z,31.83
2017-10-21T23:44:47.012Z,22.97
2017-10-21T23:47:13.014Z,27.80
2017-10-21T23:49:38.962Z,21.80
2017-10-21T23:52:04.936Z,23.47
2017-10-21T23:54:30.892Z,24.37
2017-10-21T23:56:56.897Z,23.73
2017-10-21T23:59:22.883Z,22.63
